Time;durP1;ratioP1;P1;durP2;ratioP2;P2;SDS_P1;SDS_P2;PMS_P1;PMS_P2;Temp;Humidity;BMP_temperature;BMP_pressure;BME280_temperature;BME280_humidity;BME280_pressure;Samples;Min_cycle;Max_cycle;Signal;HPM_P1;HPM_P2
2021/06/16 04:50:48;;;;;;;18.03;16.67;;;20.80;99.90;;;;;;5156773;23;20494;-69
2021/06/16 04:53:14;;;;;;;16.23;15.23;;;21.00;99.90;;;;;;4923585;29;20465;-70
2021/06/16 04:55:41;;;;;;;16.57;15.67;;;20.90;99.90;;;;;;4915359;29;20490;-69
2021/06/16 04:58:08;;;;;;;17.70;16.70;;;21.00;99.90;;;;;;4915058;29;20462;-69
2021/06/16 05:00:35;;;;;;;18.10;17.00;;;21.10;99.90;;;;;;4915235;29;20459;-69
2021/06/16 05:03:01;;;;;;;16.40;15.53;;;21.10;99.90;;;;;;4915334;29;20878;-68
2021/06/16 05:05:29;;;;;;;16.67;15.57;;;21.20;99.90;;;;;;4914854;29;20457;-68
2021/06/16 05:07:57;;;;;;;16.33;15.53;;;21.20;99.90;;;;;;4915017;29;20841;-69
2021/06/16 05:10:24;;;;;;;15.87;14.87;;;21.10;99.90;;;;;;4915026;29;20458;-68
2021/06/16 05:12:50;;;;;;;15.67;14.60;;;21.20;99.90;;;;;;4915000;29;20469;-67
2021/06/16 05:15:18;;;;;;;17.57;16.10;;;21.40;99.90;;;;;;4914819;29;20549;-69
2021/06/16 05:17:46;;;;;;;15.03;14.33;;;21.50;99.90;;;;;;4914914;29;20983;-69
2021/06/16 05:20:15;;;;;;;15.00;14.10;;;21.60;99.90;;;;;;4914710;29;20828;-69
2021/06/16 05:22:42;;;;;;;15.87;14.90;;;21.70;99.90;;;;;;4914597;29;20971;-69
2021/06/16 05:25:11;;;;;;;15.63;14.70;;;22.00;99.90;;;;;;4914515;29;20442;-69
2021/06/16 05:27:39;;;;;;;17.57;15.97;;;22.10;99.90;;;;;;4914530;29;20949;-69
2021/06/16 05:30:07;;;;;;;17.57;16.23;;;22.30;99.90;;;;;;4914915;29;20464;-69
2021/06/16 05:32:34;;;;;;;15.33;14.50;;;22.60;99.90;;;;;;4914829;29;20462;-69
2021/06/16 05:35:01;;;;;;;15.70;14.90;;;22.70;99.90;;;;;;4914825;29;20999;-69
2021/06/16 05:37:28;;;;;;;15.50;14.70;;;22.60;99.90;;;;;;4914796;29;20840;-69
2021/06/16 05:39:55;;;;;;;15.20;14.20;;;22.60;99.90;;;;;;4914556;29;20461;-68
2021/06/16 05:42:23;;;;;;;15.93;14.87;;;22.80;99.90;;;;;;4914692;29;20470;-67
2021/06/16 05:44:50;;;;;;;16.53;15.60;;;23.00;99.90;;;;;;4914590;29;20470;-67
2021/06/16 05:47:16;;;;;;;15.23;14.23;;;23.30;99.90;;;;;;4914822;29;20454;-69
2021/06/16 05:49:43;;;;;;;16.50;15.70;;;23.60;99.60;;;;;;4914363;29;20504;-71
2021/06/16 05:52:10;;;;;;;14.80;14.00;;;23.70;99.20;;;;;;4928604;29;20481;-70
2021/06/16 05:54:38;;;;;;;14.80;14.10;;;23.60;99.30;;;;;;4933082;29;20493;-70
2021/06/16 05:57:05;;;;;;;15.60;14.73;;;24.00;98.90;;;;;;4933428;29;20485;-71
2021/06/16 05:59:34;;;;;;;15.53;14.63;;;24.10;98.60;;;;;;4933356;29;20951;-70
2021/06/16 06:02:01;;;;;;;15.60;14.70;;;24.30;98.20;;;;;;4933275;29;20500;-70
2021/06/16 06:04:28;;;;;;;16.40;15.50;;;24.50;97.50;;;;;;4932928;29;20497;-70
2021/06/16 06:06:54;;;;;;;15.00;14.17;;;24.40;97.60;;;;;;4933308;29;20818;-71
2021/06/16 06:09:22;;;;;;;15.30;14.43;;;24.30;97.30;;;;;;4933220;29;20464;-71
2021/06/16 06:11:48;;;;;;;16.23;15.00;;;24.20;97.40;;;;;;4933549;29;20881;-71
2021/06/16 06:14:15;;;;;;;15.80;15.10;;;24.40;97.10;;;;;;4933104;29;20543;-71
2021/06/16 06:16:43;;;;;;;14.60;13.90;;;24.50;96.90;;;;;;4933772;29;20453;-71
2021/06/16 06:19:10;;;;;;;15.30;14.40;;;24.60;96.40;;;;;;4933274;29;20461;-70
2021/06/16 06:21:37;;;;;;;15.83;15.00;;;24.90;96.50;;;;;;4933256;29;20449;-71
2021/06/16 06:24:04;;;;;;;14.87;13.90;;;25.00;95.70;;;;;;4933273;29;20831;-71
2021/06/16 06:26:31;;;;;;;16.00;15.03;;;25.20;95.20;;;;;;4932959;29;20441;-71
2021/06/16 06:28:58;;;;;;;16.23;15.33;;;25.00;95.00;;;;;;4931324;29;20460;-71
2021/06/16 06:31:24;;;;;;;16.00;14.93;;;24.80;95.60;;;;;;4933767;29;20461;-71
2021/06/16 06:33:52;;;;;;;16.17;15.07;;;25.10;95.30;;;;;;4935360;29;20476;-71
2021/06/16 06:36:20;;;;;;;15.77;14.93;;;25.30;94.90;;;;;;4936793;29;20495;-70
2021/06/16 06:38:46;;;;;;;15.80;15.00;;;25.70;93.80;;;;;;4937003;29;20463;-71
2021/06/16 06:41:13;;;;;;;16.10;15.20;;;26.20;92.80;;;;;;4934495;29;20457;-71
2021/06/16 06:43:40;;;;;;;17.00;15.90;;;26.10;92.70;;;;;;4935094;29;20461;-71
2021/06/16 06:46:06;;;;;;;15.30;14.60;;;26.30;92.40;;;;;;4936762;29;20462;-71
2021/06/16 06:48:33;;;;;;;15.33;14.53;;;26.70;91.90;;;;;;4936913;29;20477;-71
2021/06/16 06:51:02;;;;;;;14.97;14.20;;;26.60;91.70;;;;;;4936452;29;20863;-71
2021/06/16 06:53:29;;;;;;;14.90;14.20;;;26.40;92.10;;;;;;4936713;29;20458;-71
2021/06/16 06:55:56;;;;;;;16.37;15.57;;;26.20;92.30;;;;;;4936548;29;20493;-71
2021/06/16 06:58:22;;;;;;;17.57;16.33;;;26.20;92.80;;;;;;4936581;29;20457;-71
2021/06/16 07:00:49;;;;;;;16.60;15.70;;;26.90;91.50;;;;;;4936612;29;20460;-71
2021/06/16 07:03:16;;;;;;;17.13;15.77;;;27.40;91.00;;;;;;4936424;29;20464;-71
2021/06/16 07:05:43;;;;;;;15.67;14.77;;;27.50;90.50;;;;;;4936490;29;20457;-71
2021/06/16 07:08:11;;;;;;;16.43;15.53;;;27.50;90.10;;;;;;4936620;29;20464;-71
2021/06/16 07:10:38;;;;;;;16.30;15.60;;;27.80;89.80;;;;;;4936590;29;20913;-71
2021/06/16 07:13:04;;;;;;;16.43;15.63;;;27.80;89.00;;;;;;4936806;29;20461;-70
2021/06/16 07:15:32;;;;;;;16.13;15.03;;;28.00;87.10;;;;;;4936620;29;20556;-71
2021/06/16 07:17:58;;;;;;;16.87;15.97;;;28.00;87.60;;;;;;4936396;29;20462;-71
2021/06/16 07:20:25;;;;;;;16.57;15.67;;;28.10;86.10;;;;;;4936359;29;20453;-71
2021/06/16 07:22:53;;;;;;;15.97;15.37;;;28.20;87.10;;;;;;4936314;29;20454;-72
2021/06/16 07:25:21;;;;;;;16.33;15.53;;;28.60;84.70;;;;;;4936526;29;20488;-71
2021/06/16 07:27:49;;;;;;;16.23;15.33;;;28.80;84.10;;;;;;4936401;29;20935;-72
2021/06/16 07:30:17;;;;;;;15.57;14.97;;;29.20;83.60;;;;;;4936322;29;20465;-71
2021/06/16 07:32:44;;;;;;;16.13;15.20;;;29.50;81.20;;;;;;4936142;29;20483;-71
2021/06/16 07:35:12;;;;;;;15.70;14.90;;;29.90;79.70;;;;;;4936092;29;20497;-72
2021/06/16 07:37:40;;;;;;;17.77;16.60;;;29.90;78.30;;;;;;4935911;29;20458;-71
2021/06/16 07:40:09;;;;;;;17.00;15.97;;;30.10;77.70;;;;;;4936028;29;20461;-71
2021/06/16 07:42:37;;;;;;;16.80;16.00;;;29.80;78.50;;;;;;4935505;29;20457;-71
2021/06/16 07:45:05;;;;;;;16.73;15.93;;;30.10;77.30;;;;;;4935558;29;20461;-72
2021/06/16 07:47:32;;;;;;;16.17;15.47;;;30.40;76.60;;;;;;4936059;29;20458;-71
2021/06/16 07:49:59;;;;;;;17.63;16.73;;;30.60;74.80;;;;;;4935817;29;20485;-72
2021/06/16 07:52:27;;;;;;;17.63;16.53;;;30.70;75.10;;;;;;4935671;29;20464;-71
2021/06/16 07:54:53;;;;;;;16.50;15.40;;;30.80;74.20;;;;;;4935363;29;20983;-72
2021/06/16 07:57:20;;;;;;;15.77;14.77;;;30.90;74.30;;;;;;4935535;29;20509;-72
2021/06/16 07:59:48;;;;;;;15.70;14.83;;;31.40;71.80;;;;;;4935907;29;20955;-72
2021/06/16 08:02:15;;;;;;;17.03;15.97;;;31.50;71.00;;;;;;4935889;29;20481;-72
2021/06/16 08:04:42;;;;;;;17.70;16.83;;;31.90;70.40;;;;;;4935558;29;20457;-72
2021/06/16 08:07:10;;;;;;;16.70;15.73;;;32.30;67.80;;;;;;4935534;29;21059;-72
2021/06/16 08:09:37;;;;;;;16.77;15.87;;;32.50;67.10;;;;;;4935606;29;20544;-72
2021/06/16 08:12:04;;;;;;;17.77;16.80;;;32.90;65.50;;;;;;4935529;29;20461;-72
2021/06/16 08:14:31;;;;;;;16.43;15.63;;;32.70;64.30;;;;;;4935574;29;20818;-72
2021/06/16 08:16:59;;;;;;;15.97;15.17;;;32.80;64.40;;;;;;4935203;29;20492;-72
2021/06/16 08:19:26;;;;;;;17.57;16.67;;;32.50;63.80;;;;;;4935173;29;20458;-72
2021/06/16 08:21:52;;;;;;;16.93;16.23;;;32.70;65.60;;;;;;4935169;29;20465;-72
2021/06/16 08:24:19;;;;;;;17.63;16.73;;;32.80;62.90;;;;;;4935203;29;20456;-72
2021/06/16 08:26:46;;;;;;;16.53;15.40;;;33.10;62.60;;;;;;4935303;29;20449;-72
2021/06/16 08:29:12;;;;;;;17.00;16.10;;;33.20;62.20;;;;;;4935058;29;20458;-72
2021/06/16 08:31:39;;;;;;;17.23;16.43;;;33.30;61.10;;;;;;4935085;29;20457;-71
2021/06/16 08:34:07;;;;;;;18.10;17.07;;;33.60;60.20;;;;;;4935159;29;20586;-72
2021/06/16 08:36:34;;;;;;;22.80;21.30;;;33.90;58.70;;;;;;4935171;29;20492;-71
2021/06/16 08:39:01;;;;;;;16.67;15.97;;;33.80;59.00;;;;;;4934956;29;20461;-71
2021/06/16 08:41:28;;;;;;;17.43;16.73;;;34.00;58.10;;;;;;4934861;29;20472;-72
2021/06/16 08:43:56;;;;;;;17.07;16.17;;;34.30;57.80;;;;;;4934896;29;20827;-72
2021/06/16 08:46:23;;;;;;;17.57;16.70;;;34.50;56.70;;;;;;4934776;29;20501;-72
2021/06/16 08:48:50;;;;;;;17.07;16.23;;;34.40;57.00;;;;;;4934746;29;20473;-72
2021/06/16 08:51:18;;;;;;;17.00;16.00;;;34.70;56.30;;;;;;4934603;29;20485;-72
2021/06/16 08:53:48;;;;;;;18.23;17.30;;;34.20;54.70;;;;;;4934785;29;20469;-71
2021/06/16 08:56:15;;;;;;;17.47;16.57;;;34.40;55.40;;;;;;4934521;29;20489;-72
2021/06/16 08:58:43;;;;;;;17.50;16.73;;;35.20;54.60;;;;;;4934494;29;20461;-72
2021/06/16 09:01:11;;;;;;;16.50;15.73;;;35.90;52.50;;;;;;4934448;29;21117;-72
2021/06/16 09:03:39;;;;;;;19.07;17.77;;;36.50;50.90;;;;;;4934322;29;20457;-72
2021/06/16 09:06:07;;;;;;;16.97;16.27;;;36.90;50.20;;;;;;4934409;29;20476;-72
2021/06/16 09:08:51;;;;;;;18.93;17.87;;;37.20;49.40;;;;;;4934622;29;20460;-72
2021/06/16 09:11:18;;;;;;;18.67;17.87;;;37.40;48.80;;;;;;4934651;29;20457;-72
2021/06/16 09:13:44;;;;;;;18.43;17.43;;;37.60;47.60;;;;;;4948001;29;20829;-72
2021/06/16 09:16:26;;;;;;;19.27;18.37;;;37.80;47.00;;;;;;4953251;29;20500;-72
2021/06/16 09:18:53;;;;;;;17.40;16.60;;;37.80;46.40;;;;;;4953373;29;20480;-72
2021/06/16 09:21:40;;;;;;;18.00;17.23;;;37.10;46.80;;;;;;4952890;29;20456;-71
2021/06/16 09:24:09;;;;;;;17.63;16.37;;;37.30;46.50;;;;;;4951271;29;20475;-72
2021/06/16 09:26:37;;;;;;;17.60;16.80;;;36.90;45.60;;;;;;4952732;29;20464;-71
2021/06/16 09:29:05;;;;;;;18.53;17.60;;;36.50;46.30;;;;;;4953059;29;20464;-72
2021/06/16 09:31:36;;;;;;;17.87;16.77;;;37.00;46.30;;;;;;4952792;29;20460;-72
2021/06/16 09:34:07;;;;;;;19.20;18.30;;;37.70;45.40;;;;;;4952569;29;20453;-72
2021/06/16 09:36:45;;;;;;;19.00;17.90;;;38.10;43.10;;;;;;4952912;29;21009;-72
2021/06/16 09:39:14;;;;;;;16.83;15.30;;;38.00;43.10;;;;;;4953167;29;20466;-72
2021/06/16 09:41:53;;;;;;;18.57;17.57;;;37.70;43.60;;;;;;4952871;29;20461;-71
2021/06/16 09:44:42;;;;;;;18.77;17.60;;;36.90;44.20;;;;;;4952908;29;20464;-71
2021/06/16 09:47:20;;;;;;;17.37;16.37;;;37.00;44.20;;;;;;4952878;29;20817;-72
2021/06/16 09:49:55;;;;;;;17.80;16.70;;;37.70;43.40;;;;;;4952592;29;20492;-72
2021/06/16 09:52:37;;;;;;;17.90;17.00;;;38.40;42.60;;;;;;4952756;29;20982;-72
2021/06/16 09:55:07;;;;;;;17.43;16.73;;;38.70;42.00;;;;;;4952945;29;20459;-72
2021/06/16 09:57:34;;;;;;;17.20;16.37;;;38.50;42.00;;;;;;4952847;29;20488;-71
2021/06/16 10:00:08;;;;;;;17.97;16.90;;;38.90;42.20;;;;;;4952793;29;20807;-72
2021/06/16 10:02:40;;;;;;;18.50;17.53;;;39.80;39.80;;;;;;4952531;29;20519;-71
2021/06/16 10:05:11;;;;;;;16.20;15.50;;;39.60;39.60;;;;;;4952300;29;20959;-70
2021/06/16 10:07:38;;;;;;;17.27;16.47;;;37.70;40.70;;;;;;4954924;28;20464;-72
2021/06/16 10:10:08;;;;;;;16.33;15.73;;;37.30;41.70;;;;;;4956577;29;20452;-72
2021/06/16 10:12:36;;;;;;;18.80;17.80;;;38.40;40.10;;;;;;4956565;29;20543;-72
2021/06/16 10:15:06;;;;;;;20.27;19.27;;;39.70;38.60;;;;;;4956564;29;20949;-72
2021/06/16 10:17:33;;;;;;;20.33;19.43;;;40.20;38.20;;;;;;4956382;29;20544;-72
2021/06/16 10:20:00;;;;;;;18.00;17.10;;;39.90;38.30;;;;;;4956359;29;20456;-72
2021/06/16 10:22:28;;;;;;;18.50;17.67;;;39.30;38.50;;;;;;4956314;29;20886;-72
2021/06/16 10:24:54;;;;;;;55.70;52.37;;;38.70;39.40;;;;;;4956276;29;20463;-72
2021/06/16 10:27:29;;;;;;;18.33;17.50;;;38.90;39.30;;;;;;4956216;29;20511;-72
2021/06/16 10:30:02;;;;;;;15.87;15.17;;;38.90;39.10;;;;;;4955888;29;20463;-72
2021/06/16 10:32:39;;;;;;;17.17;16.50;;;38.50;40.20;;;;;;4956152;29;20457;-72
2021/06/16 10:35:08;;;;;;;16.70;16.10;;;38.80;39.30;;;;;;4955995;29;20452;-72
2021/06/16 10:37:36;;;;;;;16.80;15.70;;;38.70;38.30;;;;;;4956056;29;20488;-71
2021/06/16 10:40:26;;;;;;;17.87;17.17;;;38.60;38.60;;;;;;4956131;29;20458;-72
2021/06/16 10:43:20;;;;;;;17.60;16.90;;;38.90;38.20;;;;;;4956166;29;20456;-71
2021/06/16 10:46:06;;;;;;;18.43;17.63;;;38.10;38.40;;;;;;4956093;29;20456;-72
2021/06/16 10:48:53;;;;;;;17.30;16.70;;;38.30;38.80;;;;;;4955566;29;20503;-72
2021/06/16 10:51:29;;;;;;;17.23;16.50;;;39.50;37.50;;;;;;4955574;29;20488;-72
2021/06/16 10:54:22;;;;;;;17.37;16.60;;;39.50;37.90;;;;;;4955633;29;20452;-72
2021/06/16 10:56:58;;;;;;;18.83;17.70;;;39.40;38.00;;;;;;4955560;29;20498;-72
2021/06/16 11:00:02;;;;;;;16.57;15.87;;;38.70;38.80;;;;;;4953996;29;20464;-71
2021/06/16 11:02:58;;;;;;;16.90;16.30;;;37.70;40.20;;;;;;4955484;29;20448;-71
2021/06/16 11:05:27;;;;;;;17.30;16.37;;;38.30;40.10;;;;;;4910925;29;20452;-71
2021/06/16 11:07:54;;;;;;;18.50;17.70;;;39.40;38.50;;;;;;4955454;29;20746;-72
2021/06/16 11:10:22;;;;;;;18.77;17.97;;;40.00;37.90;;;;;;4955450;29;20464;-72
2021/06/16 11:12:52;;;;;;;18.90;18.00;;;40.30;37.90;;;;;;4953671;29;20448;-71
2021/06/16 11:15:34;;;;;;;18.00;17.30;;;40.40;37.70;;;;;;4955671;29;20484;-71
2021/06/16 11:18:03;;;;;;;18.30;17.20;;;40.20;36.30;;;;;;4955231;28;20492;-71
2021/06/16 11:20:36;;;;;;;16.77;16.00;;;39.50;36.80;;;;;;4955393;29;20551;-71
2021/06/16 11:23:04;;;;;;;18.43;17.43;;;38.40;38.50;;;;;;4955572;29;20606;-72
2021/06/16 11:25:38;;;;;;;17.77;16.97;;;37.70;38.70;;;;;;4955313;29;20453;-71
2021/06/16 11:28:19;;;;;;;18.00;17.17;;;38.40;38.90;;;;;;4955250;29;20449;-71
2021/06/16 11:31:06;;;;;;;17.77;17.00;;;39.60;37.10;;;;;;4955187;29;20930;-72
2021/06/16 11:33:45;;;;;;;17.20;16.50;;;40.20;36.50;;;;;;4955219;29;20456;-72
2021/06/16 11:36:37;;;;;;;16.60;15.87;;;39.00;37.70;;;;;;4955106;29;20457;-72
2021/06/16 11:39:09;;;;;;;17.90;17.30;;;38.70;38.10;;;;;;4955199;29;20796;-72
2021/06/16 11:41:36;;;;;;;17.40;16.60;;;39.10;37.50;;;;;;4954940;29;20939;-72
2021/06/16 11:44:10;;;;;;;17.10;16.40;;;39.50;37.10;;;;;;4955034;29;20463;-72
2021/06/16 11:46:39;;;;;;;17.37;16.63;;;39.20;37.30;;;;;;4954910;29;20447;-71
2021/06/16 11:49:09;;;;;;;18.13;17.30;;;39.60;37.30;;;;;;4954553;29;20472;-72
2021/06/16 11:51:39;;;;;;;17.90;16.70;;;40.40;37.10;;;;;;4954933;29;20452;-71
2021/06/16 11:54:20;;;;;;;18.37;17.67;;;39.60;37.20;;;;;;4954693;29;20457;-71
2021/06/16 11:56:48;;;;;;;17.13;16.37;;;39.70;37.50;;;;;;4954762;29;21002;-72
2021/06/16 11:59:15;;;;;;;18.50;17.73;;;40.10;37.10;;;;;;4954497;29;20463;-72
2021/06/16 12:01:44;;;;;;;17.37;16.67;;;40.60;36.30;;;;;;4954651;29;20452;-72
2021/06/16 12:04:14;;;;;;;18.53;17.63;;;41.00;35.60;;;;;;4954504;29;20518;-72
2021/06/16 12:06:42;;;;;;;18.63;17.73;;;41.90;34.40;;;;;;4954541;29;20459;-72
2021/06/16 12:09:09;;;;;;;18.53;17.37;;;42.60;33.80;;;;;;4954454;29;20459;-72
2021/06/16 12:11:36;;;;;;;18.20;17.50;;;43.00;33.90;;;;;;4954324;29;20463;-72
2021/06/16 12:14:06;;;;;;;18.23;17.40;;;43.40;33.60;;;;;;4954562;29;20468;-72
2021/06/16 12:16:35;;;;;;;19.13;18.00;;;42.80;32.10;;;;;;4954557;29;20510;-71
2021/06/16 12:19:16;;;;;;;16.83;16.10;;;41.50;32.90;;;;;;4954329;29;20452;-71
2021/06/16 12:22:08;;;;;;;17.07;16.33;;;39.40;35.40;;;;;;4954213;29;20456;-71
2021/06/16 12:24:36;;;;;;;16.03;15.33;;;37.80;37.80;;;;;;4935345;29;20456;-71
2021/06/16 12:27:09;;;;;;;17.10;16.40;;;37.40;38.70;;;;;;4954327;29;20445;-72
2021/06/16 12:29:38;;;;;;;16.67;15.87;;;37.70;37.90;;;;;;4953498;28;20460;-71
2021/06/16 12:32:08;;;;;;;16.97;16.27;;;37.00;38.50;;;;;;4954141;29;20452;-71
2021/06/16 12:34:54;;;;;;;17.47;16.53;;;36.60;39.50;;;;;;4954058;29;20444;-72
2021/06/16 12:37:21;;;;;;;18.40;17.20;;;36.80;40.50;;;;;;4953814;29;20500;-72
2021/06/16 12:39:57;;;;;;;16.70;16.10;;;37.80;39.70;;;;;;4954117;29;20456;-71
2021/06/16 12:42:36;;;;;;;16.17;15.47;;;38.50;37.10;;;;;;4953874;29;20456;-71
2021/06/16 12:45:03;;;;;;;16.70;16.00;;;38.20;37.10;;;;;;4953948;29;20444;-71
2021/06/16 12:47:33;;;;;;;16.97;16.37;;;38.00;38.20;;;;;;4953772;29;20453;-72
2021/06/16 12:50:01;;;;;;;16.20;15.60;;;38.80;37.00;;;;;;4953597;29;20483;-72
2021/06/16 12:52:30;;;;;;;18.00;17.20;;;38.90;35.00;;;;;;4953916;29;20492;-71
2021/06/16 12:55:08;;;;;;;15.70;15.10;;;38.90;35.40;;;;;;4953559;29;20457;-72
2021/06/16 12:57:42;;;;;;;18.83;18.13;;;39.40;36.10;;;;;;4953392;29;20499;-72
2021/06/16 13:00:13;;;;;;;18.20;17.50;;;40.10;35.00;;;;;;4953556;29;20672;-72
2021/06/16 13:02:40;;;;;;;18.03;17.13;;;39.40;36.40;;;;;;4953388;29;20757;-72
2021/06/16 13:05:10;;;;;;;17.77;16.93;;;38.30;36.30;;;;;;4953513;29;20483;-71
2021/06/16 13:07:44;;;;;;;16.73;15.70;;;37.70;37.40;;;;;;4953358;29;20457;-71
2021/06/16 13:10:13;;;;;;;17.03;16.43;;;37.40;37.60;;;;;;4953272;29;20549;-72
2021/06/16 13:12:50;;;;;;;17.47;16.57;;;37.70;38.00;;;;;;4953391;29;20453;-71
2021/06/16 13:15:17;;;;;;;17.60;16.73;;;38.10;37.70;;;;;;4953525;29;20453;-71
2021/06/16 13:17:46;;;;;;;17.17;16.37;;;38.10;37.80;;;;;;4953213;29;20495;-71
2021/06/16 13:20:15;;;;;;;16.97;16.27;;;38.30;38.20;;;;;;4953213;29;20460;-71
2021/06/16 13:22:45;;;;;;;17.17;16.27;;;37.70;37.10;;;;;;4953097;29;20836;-71
2021/06/16 13:25:22;;;;;;;17.00;16.30;;;37.80;38.00;;;;;;4953043;29;20463;-71
2021/06/16 13:27:51;;;;;;;16.33;15.73;;;38.00;37.40;;;;;;4953478;29;20448;-71
2021/06/16 13:30:27;;;;;;;17.67;16.87;;;38.30;37.30;;;;;;4953144;29;20456;-71
2021/06/16 13:32:54;;;;;;;16.50;15.80;;;36.60;39.40;;;;;;4952841;29;20459;-71
2021/06/16 13:35:22;;;;;;;17.40;16.60;;;36.00;40.50;;;;;;4952886;29;20464;-71
2021/06/16 13:37:49;;;;;;;17.03;16.33;;;36.30;40.00;;;;;;4953081;29;20511;-71
2021/06/16 13:40:17;;;;;;;17.70;17.00;;;36.50;39.90;;;;;;4952849;28;20931;-71
2021/06/16 13:42:48;;;;;;;17.13;16.33;;;36.40;40.10;;;;;;4952260;29;20457;-71
2021/06/16 13:45:16;;;;;;;17.87;17.10;;;36.50;40.40;;;;;;4953041;29;20461;-71
2021/06/16 13:47:43;;;;;;;17.17;16.47;;;36.80;40.20;;;;;;4952674;29;20457;-71
2021/06/16 13:50:10;;;;;;;17.50;16.80;;;37.00;39.40;;;;;;4952483;29;20488;-71
2021/06/16 13:52:39;;;;;;;17.90;16.97;;;36.80;39.50;;;;;;4952799;29;20822;-71
2021/06/16 13:55:07;;;;;;;16.80;15.97;;;36.50;39.90;;;;;;4952820;29;20449;-70
2021/06/16 13:57:34;;;;;;;16.80;16.10;;;36.00;40.90;;;;;;4952729;29;20484;-71
2021/06/16 14:00:00;;;;;;;17.20;16.50;;;35.60;41.70;;;;;;4952733;29;20452;-71
2021/06/16 14:02:29;;;;;;;17.87;16.80;;;35.30;42.00;;;;;;4952458;29;20492;-71
2021/06/16 14:04:56;;;;;;;15.93;15.20;;;35.60;41.70;;;;;;4952496;28;20823;-71
2021/06/16 14:07:23;;;;;;;17.63;16.93;;;35.00;42.30;;;;;;4952446;29;20540;-71
2021/06/16 14:09:52;;;;;;;17.43;16.53;;;35.20;43.10;;;;;;4952652;29;20457;-72
2021/06/16 14:12:18;;;;;;;16.77;15.97;;;35.50;42.40;;;;;;4952732;29;20460;-71
2021/06/16 14:14:45;;;;;;;18.10;17.27;;;35.90;42.30;;;;;;4952366;29;20457;-71
2021/06/16 14:17:12;;;;;;;17.00;16.40;;;36.10;42.40;;;;;;4952492;29;20575;-71
2021/06/16 14:19:39;;;;;;;17.30;16.60;;;36.80;40.70;;;;;;4952810;29;20479;-71
2021/06/16 14:22:05;;;;;;;18.70;17.63;;;37.20;39.80;;;;;;4952811;29;20452;-72
2021/06/16 14:24:32;;;;;;;17.07;16.40;;;37.10;40.00;;;;;;4952689;29;20791;-71
2021/06/16 14:27:00;;;;;;;17.57;16.87;;;36.60;40.80;;;;;;4952796;29;20463;-71
2021/06/16 14:29:27;;;;;;;18.30;17.53;;;36.30;40.50;;;;;;4952522;29;20456;-71
2021/06/16 14:31:54;;;;;;;17.77;16.77;;;36.60;40.90;;;;;;4952495;29;20448;-71
2021/06/16 14:34:22;;;;;;;16.80;15.97;;;36.40;41.10;;;;;;4952280;29;20467;-71
2021/06/16 14:36:49;;;;;;;17.67;17.00;;;36.00;41.10;;;;;;4952313;29;20460;-71
2021/06/16 14:39:17;;;;;;;17.63;16.83;;;35.70;41.80;;;;;;4952499;29;20484;-71
2021/06/16 14:41:45;;;;;;;18.80;17.80;;;35.80;41.50;;;;;;4952689;29;20613;-71
2021/06/16 14:44:13;;;;;;;16.57;15.97;;;35.80;41.30;;;;;;4952223;29;20449;-71
2021/06/16 14:46:39;;;;;;;17.13;16.30;;;36.00;41.40;;;;;;4952286;29;20460;-71
2021/06/16 14:49:06;;;;;;;17.53;16.83;;;35.30;41.70;;;;;;4952029;29;20473;-71
2021/06/16 14:51:33;;;;;;;17.73;16.83;;;35.10;41.80;;;;;;4952631;29;20472;-71
2021/06/16 14:53:59;;;;;;;16.90;16.20;;;34.70;42.20;;;;;;4955212;28;20452;-71
2021/06/16 14:56:26;;;;;;;16.57;15.87;;;35.10;42.70;;;;;;4955769;29;20939;-71
2021/06/16 14:58:53;;;;;;;18.53;17.63;;;34.90;42.50;;;;;;4955626;29;20495;-71
2021/06/16 15:01:21;;;;;;;17.03;16.23;;;34.30;43.10;;;;;;4955536;29;20634;-71
2021/06/16 15:03:50;;;;;;;17.33;16.63;;;33.90;43.50;;;;;;4955805;29;20467;-71
2021/06/16 15:06:17;;;;;;;17.60;16.80;;;33.60;44.30;;;;;;4955647;29;20460;-71
2021/06/16 15:08:43;;;;;;;19.57;18.50;;;33.80;44.40;;;;;;4955522;29;20456;-71
2021/06/16 15:11:10;;;;;;;17.10;16.20;;;33.90;44.30;;;;;;4955307;29;20460;-71
2021/06/16 15:13:37;;;;;;;17.17;16.50;;;34.30;44.10;;;;;;4955064;29;20461;-70
2021/06/16 15:16:04;;;;;;;17.40;16.33;;;34.10;43.30;;;;;;4955412;29;20471;-70
2021/06/16 15:18:32;;;;;;;17.53;16.83;;;33.50;43.80;;;;;;4955339;29;20491;-70
2021/06/16 15:21:00;;;;;;;16.57;15.90;;;33.00;44.10;;;;;;4955312;29;20460;-70
2021/06/16 15:23:27;;;;;;;15.53;14.73;;;32.80;44.20;;;;;;4955014;29;20452;-70
2021/06/16 15:25:54;;;;;;;15.80;15.20;;;32.50;45.30;;;;;;4955049;29;20487;-71
2021/06/16 15:28:20;;;;;;;16.20;15.40;;;32.20;46.40;;;;;;4955042;29;20452;-70
2021/06/16 15:30:47;;;;;;;15.23;14.53;;;32.00;46.50;;;;;;4955023;29;20947;-71
2021/06/16 15:33:14;;;;;;;16.37;15.67;;;32.00;46.60;;;;;;4955031;29;20453;-71
2021/06/16 15:35:42;;;;;;;15.93;15.23;;;32.10;47.00;;;;;;4954963;29;20460;-70
2021/06/16 15:38:15;;;;;;;16.83;16.13;;;32.30;46.80;;;;;;4954891;29;20494;-70
2021/06/16 15:40:43;;;;;;;16.40;15.60;;;32.30;46.00;;;;;;4954940;29;20482;-70
2021/06/16 15:43:11;;;;;;;15.97;15.27;;;32.40;46.20;;;;;;4954673;29;20887;-71
2021/06/16 15:45:39;;;;;;;16.50;15.80;;;32.40;46.20;;;;;;4954581;29;20481;-70
2021/06/16 15:48:10;;;;;;;16.47;15.57;;;32.40;46.40;;;;;;4954573;29;20472;-71
2021/06/16 15:50:37;;;;;;;15.50;14.90;;;32.50;46.90;;;;;;4954381;29;20512;-70
2021/06/16 15:53:06;;;;;;;16.13;15.33;;;32.40;46.40;;;;;;4955070;29;20461;-70
2021/06/16 15:55:33;;;;;;;16.17;15.40;;;32.60;45.80;;;;;;4954752;29;20955;-70
2021/06/16 15:58:00;;;;;;;16.13;15.53;;;32.30;45.20;;;;;;4954689;29;20499;-70
2021/06/16 16:00:27;;;;;;;16.53;15.73;;;32.20;45.70;;;;;;4954373;29;20464;-71
2021/06/16 16:02:54;;;;;;;16.93;16.23;;;32.30;45.30;;;;;;4954531;29;20448;-70
2021/06/16 16:05:23;;;;;;;16.60;15.90;;;32.30;45.30;;;;;;4953191;28;20460;-70
2021/06/16 16:07:50;;;;;;;16.43;15.73;;;32.10;45.60;;;;;;4954200;29;20943;-70
2021/06/16 16:10:19;;;;;;;15.83;15.03;;;32.20;46.30;;;;;;4954410;29;20456;-70
2021/06/16 16:12:47;;;;;;;16.60;15.73;;;32.20;46.10;;;;;;4954235;29;20456;-71
2021/06/16 16:15:17;;;;;;;16.97;15.77;;;32.40;45.80;;;;;;4954066;29;20460;-70
2021/06/16 16:17:44;;;;;;;16.27;15.43;;;32.40;44.80;;;;;;4954146;29;20464;-69
2021/06/16 16:20:12;;;;;;;17.43;16.43;;;32.50;45.00;;;;;;4954105;29;20464;-70
2021/06/16 16:22:39;;;;;;;15.30;14.60;;;32.30;45.00;;;;;;4953863;29;20808;-70
2021/06/16 16:25:07;;;;;;;16.40;15.40;;;32.30;44.90;;;;;;4953800;29;20459;-70
2021/06/16 16:27:35;;;;;;;15.63;14.83;;;32.30;45.00;;;;;;4953795;29;20795;-69
2021/06/16 16:30:02;;;;;;;15.10;14.40;;;32.20;45.20;;;;;;4953779;29;20961;-69
2021/06/16 16:32:29;;;;;;;16.30;15.47;;;32.10;44.80;;;;;;4953475;29;20461;-70
2021/06/16 16:34:56;;;;;;;16.63;15.77;;;32.20;45.10;;;;;;4953642;29;20849;-70
2021/06/16 16:37:22;;;;;;;15.97;15.37;;;32.00;45.30;;;;;;4953361;29;20453;-70
2021/06/16 16:39:51;;;;;;;15.30;14.80;;;32.00;45.70;;;;;;4953520;29;20994;-70
2021/06/16 16:42:18;;;;;;;16.27;14.93;;;32.00;44.80;;;;;;4951787;29;20515;-69
2021/06/16 16:44:46;;;;;;;15.63;15.03;;;32.00;44.80;;;;;;4953716;29;20553;-70
2021/06/16 16:47:13;;;;;;;16.97;16.00;;;32.10;45.50;;;;;;4953421;29;20456;-70
2021/06/16 16:49:40;;;;;;;15.80;15.00;;;32.10;45.70;;;;;;4952925;29;20487;-69
2021/06/16 16:52:08;;;;;;;16.07;15.47;;;32.00;45.20;;;;;;4953256;29;20456;-70
2021/06/16 16:54:35;;;;;;;16.03;15.33;;;32.00;45.10;;;;;;4953155;29;20452;-70
2021/06/16 16:57:02;;;;;;;15.23;14.70;;;32.00;45.20;;;;;;4953078;29;20456;-70
2021/06/16 16:59:28;;;;;;;15.90;15.20;;;32.00;45.10;;;;;;4953014;29;20504;-70
2021/06/16 17:01:57;;;;;;;15.33;14.63;;;32.00;44.80;;;;;;4952977;29;20488;-70
2021/06/16 17:04:23;;;;;;;16.10;15.50;;;31.90;45.70;;;;;;4952787;29;20449;-70
2021/06/16 17:06:50;;;;;;;15.83;15.23;;;31.90;46.10;;;;;;4953269;29;20465;-70
2021/06/16 17:09:17;;;;;;;15.13;14.53;;;31.80;46.50;;;;;;4953204;29;20469;-70
2021/06/16 17:11:44;;;;;;;15.97;15.00;;;31.80;47.00;;;;;;4953248;29;20457;-70
2021/06/16 17:14:10;;;;;;;16.17;15.57;;;31.60;47.50;;;;;;4952933;29;20460;-70
2021/06/16 17:16:37;;;;;;;15.70;14.97;;;31.60;47.10;;;;;;4952528;28;20594;-70
2021/06/16 17:19:05;;;;;;;16.20;15.33;;;31.40;48.10;;;;;;4952875;29;20488;-70
2021/06/16 17:21:32;;;;;;;14.50;13.80;;;31.40;48.50;;;;;;4953039;29;20834;-71
2021/06/16 17:23:59;;;;;;;15.77;14.90;;;31.40;48.50;;;;;;4952967;29;20472;-70
2021/06/16 17:26:25;;;;;;;15.87;14.40;;;31.40;48.80;;;;;;4952673;29;20837;-70
2021/06/16 17:28:52;;;;;;;14.20;13.57;;;31.20;49.40;;;;;;4952782;29;20482;-70